createdAt,value
2023-03-20T00:01:30.217Z,9.20
2023-03-20T00:04:00.394Z,9.10
2023-03-20T00:06:33.740Z,9.10
2023-03-20T00:09:06.894Z,8.90
2023-03-20T00:11:43.105Z,8.90
2023-03-20T00:14:14.025Z,9.10
2023-03-20T00:16:48.394Z,9.00
2023-03-20T00:19:23.402Z,9.10
2023-03-20T00:21:52.775Z,8.70
2023-03-20T00:24:20.704Z,9.00
2023-03-20T00:26:49.733Z,8.90
2023-03-20T00:29:31.656Z,8.70
2023-03-20T00:31:59.662Z,8.90
2023-03-20T00:34:29.821Z,8.80
2023-03-20T00:36:58.340Z,8.80
2023-03-20T00:39:25.759Z,8.80
2023-03-20T00:42:06.142Z,8.90
2023-03-20T00:44:44.810Z,8.80
2023-03-20T00:47:18.394Z,9.10
2023-03-20T00:49:48.470Z,8.90
2023-03-20T00:52:17.989Z,8.70
2023-03-20T00:54:45.435Z,8.80
2023-03-20T00:57:33.442Z,8.90
2023-03-20T01:00:05.896Z,8.80
2023-03-20T01:02:34.324Z,8.70
2023-03-20T01:05:02.394Z,8.80
2023-03-20T01:07:29.778Z,8.80
2023-03-20T01:10:00.037Z,8.80
2023-03-20T01:12:28.432Z,8.80
2023-03-20T01:14:57.922Z,9.00
2023-03-20T01:17:29.473Z,8.80
2023-03-20T01:19:57.005Z,8.80
2023-03-20T01:22:24.840Z,8.80
2023-03-20T01:25:01.043Z,8.40
2023-03-20T01:27:28.498Z,8.80
2023-03-20T01:29:55.763Z,8.70
2023-03-20T01:32:23.282Z,8.70
2023-03-20T01:34:53.284Z,8.70
2023-03-20T01:37:28.541Z,8.80
2023-03-20T01:40:01.149Z,8.80
2023-03-20T01:42:32.328Z,8.80
2023-03-20T01:45:00.156Z,8.90
2023-03-20T01:47:29.897Z,8.80
2023-03-20T01:50:18.538Z,8.80
2023-03-20T01:52:54.246Z,8.70
2023-03-20T01:55:22.960Z,8.70
2023-03-20T01:57:59.270Z,8.70
2023-03-20T02:00:28.627Z,8.80
2023-03-20T02:02:57.008Z,8.80
2023-03-20T02:05:51.083Z,8.80
2023-03-20T02:08:21.715Z,8.70
2023-03-20T02:10:50.398Z,8.70
2023-03-20T02:13:26.425Z,8.70
2023-03-20T02:16:03.602Z,8.80
2023-03-20T02:18:52.232Z,8.70
2023-03-20T02:21:59.282Z,8.70
2023-03-20T02:24:41.401Z,8.70
2023-03-20T02:27:39.115Z,8.70
2023-03-20T02:30:44.334Z,8.70
2023-03-20T02:33:21.697Z,8.50
2023-03-20T02:36:01.948Z,9.00
2023-03-20T02:38:35.174Z,8.60
2023-03-20T02:41:12.263Z,8.60
2023-03-20T02:44:04.391Z,8.70
2023-03-20T02:47:03.720Z,8.50
2023-03-20T02:49:37.254Z,8.60
2023-03-20T02:52:16.976Z,8.80
2023-03-20T02:55:10.950Z,8.60
2023-03-20T02:57:45.209Z,8.60
2023-03-20T03:00:29.518Z,8.60
2023-03-20T03:03:14.939Z,8.70
2023-03-20T03:05:49.941Z,8.50
2023-03-20T03:08:21.159Z,8.40
2023-03-20T03:10:59.017Z,8.10
2023-03-20T03:13:30.275Z,8.50
2023-03-20T03:16:04.748Z,8.60
2023-03-20T03:18:36.278Z,8.40
2023-03-20T03:21:07.659Z,8.30
2023-03-20T03:23:45.208Z,8.50
2023-03-20T03:26:37.400Z,8.40
2023-03-20T03:29:13.002Z,8.40
2023-03-20T03:31:42.867Z,8.10
2023-03-20T03:34:17.921Z,8.20
2023-03-20T03:37:30.116Z,8.10
2023-03-20T03:40:17.854Z,8.00
2023-03-20T03:43:14.458Z,8.20
2023-03-20T03:45:55.266Z,8.00
2023-03-20T03:48:36.897Z,8.10
2023-03-20T03:51:12.137Z,8.10
2023-03-20T03:54:00.991Z,8.20
2023-03-20T03:56:32.069Z,7.90
2023-03-20T03:59:04.439Z,8.00
2023-03-20T04:01:35.787Z,7.90
2023-03-20T04:04:07.853Z,7.90
2023-03-20T04:06:35.518Z,7.80
2023-03-20T04:09:05.647Z,7.80
2023-03-20T04:11:32.925Z,7.60
2023-03-20T04:14:02.102Z,7.80
2023-03-20T04:16:29.586Z,7.70
2023-03-20T04:18:57.352Z,7.70
2023-03-20T04:21:25.088Z,7.50
2023-03-20T04:23:52.864Z,7.70
2023-03-20T04:26:23.729Z,7.50
2023-03-20T04:28:51.889Z,7.50
2023-03-20T04:31:47.700Z,7.50
2023-03-20T04:34:30.650Z,7.40
2023-03-20T04:37:08.742Z,7.50
2023-03-20T04:39:54.974Z,7.60
2023-03-20T04:42:24.878Z,7.50
2023-03-20T04:44:57.523Z,7.60
2023-03-20T04:47:25.605Z,7.40
2023-03-20T04:49:53.262Z,7.40
2023-03-20T04:52:21.077Z,7.20
2023-03-20T04:54:48.305Z,7.30
2023-03-20T04:57:16.358Z,7.20
2023-03-20T04:59:43.743Z,7.00
2023-03-20T05:02:15.137Z,7.40
2023-03-20T05:04:43.281Z,7.30
2023-03-20T05:07:11.513Z,7.10
2023-03-20T05:09:48.905Z,7.60
2023-03-20T05:12:19.972Z,7.50
2023-03-20T05:15:19.741Z,7.20
2023-03-20T05:18:05.590Z,7.30
2023-03-20T05:20:53.488Z,7.20
2023-03-20T05:23:48.575Z,7.40
2023-03-20T05:26:37.318Z,7.40
2023-03-20T05:29:17.403Z,7.40
2023-03-20T05:32:03.220Z,7.40
2023-03-20T05:34:36.934Z,7.40
2023-03-20T05:37:21.374Z,7.40
2023-03-20T05:40:15.940Z,7.40
2023-03-20T05:42:55.260Z,7.40
2023-03-20T05:45:34.741Z,7.20
2023-03-20T05:48:33.884Z,7.40
2023-03-20T05:51:24.097Z,7.50
2023-03-20T05:54:22.871Z,7.60
2023-03-20T05:57:19.701Z,7.70
2023-03-20T05:59:53.181Z,7.60
2023-03-20T06:02:47.873Z,7.70
2023-03-20T06:05:39.378Z,7.50
2023-03-20T06:08:09.964Z,7.60
2023-03-20T06:10:37.472Z,7.60
2023-03-20T06:13:04.982Z,6.70
2023-03-20T06:15:33.244Z,7.70
2023-03-20T06:18:11.371Z,7.90
2023-03-20T06:20:38.802Z,8.00
2023-03-20T06:23:06.368Z,7.90
2023-03-20T06:25:34.949Z,8.10
2023-03-20T06:28:02.789Z,8.20
2023-03-20T06:30:30.668Z,8.30
2023-03-20T06:33:02.001Z,8.40
2023-03-20T06:35:38.559Z,8.40
2023-03-20T06:38:06.473Z,8.40
2023-03-20T06:40:34.166Z,8.50
2023-03-20T06:43:01.895Z,8.50
2023-03-20T06:45:42.130Z,8.60
2023-03-20T06:48:22.175Z,8.80
2023-03-20T06:50:53.312Z,8.90
2023-03-20T06:53:24.370Z,9.00
2023-03-20T06:55:57.902Z,9.10
2023-03-20T06:58:27.141Z,9.30
2023-03-20T07:00:58.663Z,9.50
2023-03-20T07:03:49.165Z,9.60
2023-03-20T07:06:33.694Z,9.70
2023-03-20T07:09:13.406Z,9.80
2023-03-20T07:11:43.562Z,10.00
2023-03-20T07:14:21.435Z,10.10
2023-03-20T07:16:56.512Z,10.10
2023-03-20T07:19:24.407Z,10.10
2023-03-20T07:22:02.611Z,10.20
2023-03-20T07:24:39.176Z,10.50
2023-03-20T07:27:06.870Z,10.60
2023-03-20T07:29:35.664Z,10.70
2023-03-20T07:32:06.236Z,10.00
2023-03-20T07:35:05.064Z,10.80
2023-03-20T07:37:36.909Z,11.10
2023-03-20T07:40:06.112Z,11.30
2023-03-20T07:42:45.748Z,11.20
2023-03-20T07:45:18.539Z,11.30
2023-03-20T07:47:48.659Z,11.40
2023-03-20T07:50:16.999Z,11.50
2023-03-20T07:52:51.633Z,11.60
2023-03-20T07:55:26.530Z,11.60
2023-03-20T07:57:56.859Z,11.80
2023-03-20T08:00:28.232Z,11.90
2023-03-20T08:02:57.368Z,12.00
2023-03-20T08:05:25.372Z,12.00
2023-03-20T08:07:53.124Z,12.10
2023-03-20T08:10:21.013Z,12.20
2023-03-20T08:12:54.712Z,12.30
2023-03-20T08:15:25.311Z,12.30
2023-03-20T08:17:52.601Z,12.30
2023-03-20T08:20:20.157Z,12.60
2023-03-20T08:22:49.867Z,12.50
2023-03-20T08:25:17.336Z,12.60
2023-03-20T08:27:46.917Z,12.50
2023-03-20T08:30:48.208Z,12.70
2023-03-20T08:33:21.400Z,13.10
2023-03-20T08:39:21.986Z,13.30
2023-03-20T08:41:49.684Z,13.40
2023-03-20T08:44:17.522Z,13.40
2023-03-20T08:46:46.474Z,13.40
2023-03-20T08:49:14.302Z,13.50
2023-03-20T08:51:48.448Z,12.70
2023-03-20T08:57:17.359Z,13.90
2023-03-20T08:59:44.817Z,13.90
2023-03-20T09:02:15.420Z,14.20
2023-03-20T09:04:45.527Z,14.20
2023-03-20T09:07:12.903Z,14.30
2023-03-20T09:09:42.843Z,14.20
2023-03-20T09:12:14.915Z,14.30
2023-03-20T09:14:42.512Z,14.30
2023-03-20T09:17:11.708Z,14.40
2023-03-20T09:19:46.146Z,14.10
2023-03-20T09:22:18.314Z,14.50
2023-03-20T09:24:48.250Z,14.50
2023-03-20T09:27:16.431Z,14.90
2023-03-20T09:29:44.275Z,15.00
2023-03-20T09:32:13.640Z,15.00
2023-03-20T09:34:41.141Z,15.20
2023-03-20T09:37:08.850Z,15.10
2023-03-20T09:43:54.510Z,15.50
2023-03-20T09:46:36.301Z,15.70
2023-03-20T09:49:35.239Z,15.50
2023-03-20T09:52:30.480Z,15.40
2023-03-20T09:55:14.355Z,15.40
2023-03-20T09:57:44.329Z,15.60
2023-03-20T10:00:18.307Z,16.60
2023-03-20T10:03:15.791Z,15.60
2023-03-20T10:05:54.526Z,15.60
2023-03-20T10:08:26.152Z,15.30
2023-03-20T10:10:59.978Z,15.70
2023-03-20T10:13:53.047Z,15.80
2023-03-20T10:16:45.031Z,15.60
2023-03-20T10:19:20.334Z,15.80
2023-03-20T10:22:26.028Z,15.90
2023-03-20T10:25:03.243Z,16.10
2023-03-20T10:27:46.427Z,16.00
2023-03-20T10:30:41.584Z,15.90
2023-03-20T10:33:27.413Z,16.20
2023-03-20T10:36:18.560Z,16.50
2023-03-20T10:39:18.119Z,16.40
2023-03-20T10:41:56.942Z,16.40
2023-03-20T10:44:43.403Z,16.30
2023-03-20T10:47:15.226Z,16.40
2023-03-20T10:49:56.345Z,16.60
2023-03-20T10:52:31.248Z,16.30
2023-03-20T10:55:03.479Z,16.40
2023-03-20T10:57:35.643Z,16.60
2023-03-20T11:00:05.317Z,16.70
2023-03-20T11:02:36.909Z,16.70
2023-03-20T11:05:22.950Z,16.60
2023-03-20T11:08:00.002Z,16.70
2023-03-20T11:10:28.028Z,16.80
2023-03-20T11:12:55.292Z,16.90
2023-03-20T11:15:32.539Z,17.00
2023-03-20T11:18:01.513Z,16.90
2023-03-20T11:20:41.344Z,16.90
2023-03-20T11:23:17.100Z,16.70
2023-03-20T11:25:50.370Z,16.90
2023-03-20T11:28:30.373Z,16.50
2023-03-20T11:31:05.746Z,17.00
2023-03-20T11:33:37.774Z,16.90
2023-03-20T11:36:20.996Z,16.70
2023-03-20T11:38:49.993Z,16.50
2023-03-20T11:41:22.245Z,16.80
2023-03-20T11:43:49.680Z,16.90
2023-03-20T11:46:17.062Z,17.00
2023-03-20T11:48:46.024Z,16.90
2023-03-20T11:51:24.639Z,16.80
2023-03-20T11:54:03.140Z,16.90
2023-03-20T11:56:35.668Z,16.70
2023-03-20T11:59:18.626Z,17.00
2023-03-20T12:01:54.799Z,16.90
2023-03-20T12:04:42.985Z,17.00
2023-03-20T12:07:16.168Z,17.00
2023-03-20T12:09:49.335Z,16.90
2023-03-20T12:12:43.728Z,17.00
2023-03-20T12:15:13.839Z,16.90
2023-03-20T12:17:41.278Z,16.90
2023-03-20T12:20:43.669Z,17.00
2023-03-20T12:23:12.731Z,17.00
2023-03-20T12:26:04.307Z,17.10
2023-03-20T12:29:03.610Z,17.30
2023-03-20T12:31:46.178Z,17.00
2023-03-20T12:34:33.169Z,16.90
2023-03-20T12:37:02.713Z,17.00
2023-03-20T12:39:41.562Z,16.00
2023-03-20T12:42:09.617Z,17.10
2023-03-20T12:45:19.809Z,17.10
2023-03-20T12:48:05.440Z,17.20
2023-03-20T12:50:39.437Z,17.00
2023-03-20T12:53:27.295Z,17.20
2023-03-20T12:56:00.700Z,17.00
2023-03-20T12:58:51.782Z,17.20
2023-03-20T13:01:42.646Z,17.00
2023-03-20T13:04:28.189Z,17.10
2023-03-20T13:07:00.365Z,17.20
2023-03-20T13:09:48.912Z,17.10
2023-03-20T13:12:22.402Z,17.20
2023-03-20T13:25:40.196Z,17.20
2023-03-20T13:28:21.577Z,17.40
2023-03-20T13:33:52.461Z,17.50
2023-03-20T13:36:42.338Z,17.50
2023-03-20T13:39:22.465Z,17.50
2023-03-20T13:41:50.891Z,17.60
2023-03-20T13:44:21.298Z,17.50
2023-03-20T13:47:29.916Z,17.40
2023-03-20T13:50:35.952Z,17.40
2023-03-20T13:53:32.577Z,17.40
2023-03-20T13:56:17.102Z,17.30
2023-03-20T13:59:03.841Z,17.30
2023-03-20T14:01:37.738Z,17.00
2023-03-20T14:04:22.703Z,17.20
2023-03-20T14:06:59.528Z,17.30
2023-03-20T14:09:38.403Z,17.30
2023-03-20T14:12:11.318Z,17.20
2023-03-20T14:14:56.707Z,17.00
2023-03-20T14:17:30.898Z,17.10
2023-03-20T14:20:09.642Z,17.10
2023-03-20T14:22:42.335Z,17.20
2023-03-20T14:25:18.994Z,17.20
2023-03-20T14:28:07.079Z,17.10
2023-03-20T14:34:55.260Z,17.00
2023-03-20T14:37:57.008Z,16.90
2023-03-20T14:40:31.765Z,16.80
2023-03-20T14:43:20.081Z,16.80
2023-03-20T14:46:35.926Z,16.80
2023-03-20T14:49:27.573Z,16.70
2023-03-20T14:52:23.735Z,15.90
2023-03-20T14:58:26.176Z,16.60
2023-03-20T15:00:53.594Z,16.60
2023-03-20T15:03:33.191Z,16.90
2023-03-20T15:06:08.392Z,16.70
2023-03-20T15:08:54.429Z,16.80
2023-03-20T15:11:26.777Z,16.80
2023-03-20T15:13:57.269Z,16.80
2023-03-20T15:16:49.180Z,16.80
2023-03-20T15:19:22.664Z,16.70
2023-03-20T15:21:50.488Z,16.60
2023-03-20T15:24:23.696Z,16.50
2023-03-20T15:27:26.886Z,15.60
2023-03-20T15:29:56.724Z,16.40
2023-03-20T15:32:25.614Z,16.00
2023-03-20T15:34:57.229Z,16.30
2023-03-20T15:37:34.187Z,16.20
2023-03-20T15:40:17.092Z,16.20
2023-03-20T15:42:44.567Z,16.30
2023-03-20T15:45:46.709Z,16.20
2023-03-20T15:48:16.939Z,16.10
2023-03-20T15:51:00.684Z,16.20
2023-03-20T15:53:37.431Z,16.10
2023-03-20T15:56:17.814Z,16.10
2023-03-20T15:58:49.133Z,16.10
2023-03-20T16:01:27.737Z,16.20
2023-03-20T16:03:59.802Z,16.20
2023-03-20T16:06:27.331Z,16.30
2023-03-20T16:09:11.048Z,16.20
2023-03-20T16:11:44.523Z,16.30
2023-03-20T16:14:24.043Z,16.20
2023-03-20T16:16:53.741Z,15.30
2023-03-20T16:19:21.969Z,16.50
2023-03-20T16:21:56.480Z,16.10
2023-03-20T16:24:34.750Z,16.00
2023-03-20T16:27:10.019Z,15.90
2023-03-20T16:29:43.159Z,15.60
2023-03-20T16:32:31.223Z,15.80
2023-03-20T16:34:59.586Z,15.70
2023-03-20T16:37:32.175Z,15.50
2023-03-20T16:40:17.304Z,15.40
2023-03-20T16:42:45.663Z,15.30
2023-03-20T16:45:33.955Z,15.20
2023-03-20T16:48:11.171Z,15.20
2023-03-20T16:50:43.483Z,15.50
2023-03-20T16:53:20.423Z,15.00
2023-03-20T16:55:54.260Z,14.80
2023-03-20T16:58:29.323Z,14.70
2023-03-20T17:01:03.976Z,14.60
2023-03-20T17:03:55.933Z,14.50
2023-03-20T17:06:27.914Z,14.30
2023-03-20T17:09:01.629Z,14.30
2023-03-20T17:11:35.594Z,14.20
2023-03-20T17:14:04.646Z,14.00
2023-03-20T17:16:34.100Z,13.40
2023-03-20T17:19:21.845Z,13.80
2023-03-20T17:21:50.076Z,13.80
2023-03-20T17:24:19.149Z,13.60
2023-03-20T17:26:53.968Z,13.60
2023-03-20T17:29:22.110Z,13.50
2023-03-20T17:31:50.787Z,13.40
2023-03-20T17:34:18.788Z,13.30
2023-03-20T17:36:46.854Z,13.30
2023-03-20T17:39:21.744Z,13.30
2023-03-20T17:41:49.352Z,13.20
2023-03-20T17:44:16.995Z,13.60
2023-03-20T17:46:57.954Z,13.10
2023-03-20T17:49:27.786Z,12.90
2023-03-20T17:51:56.503Z,12.90
2023-03-20T17:54:24.263Z,12.80
2023-03-20T17:56:52.103Z,12.80
2023-03-20T17:59:20.211Z,12.70
2023-03-20T18:01:48.194Z,12.70
2023-03-20T18:04:16.211Z,12.70
2023-03-20T18:06:43.854Z,12.60
2023-03-20T18:09:15.437Z,12.50
2023-03-20T18:11:43.925Z,12.50
2023-03-20T18:14:12.804Z,12.40
2023-03-20T18:16:42.929Z,12.40
2023-03-20T18:19:27.030Z,12.40
2023-03-20T18:21:56.460Z,12.00
2023-03-20T18:24:27.027Z,12.20
2023-03-20T18:27:00.097Z,12.40
2023-03-20T18:29:34.312Z,12.20
2023-03-20T18:32:11.964Z,12.10
2023-03-20T18:34:41.909Z,12.10
2023-03-20T18:37:15.944Z,12.10
2023-03-20T18:39:45.616Z,12.20
2023-03-20T18:42:17.433Z,12.00
2023-03-20T18:44:45.924Z,11.90
2023-03-20T18:47:14.922Z,11.80
2023-03-20T18:49:42.845Z,12.20
2023-03-20T18:52:15.948Z,11.90
2023-03-20T18:55:05.374Z,11.70
2023-03-20T18:57:33.614Z,11.80
2023-03-20T19:00:02.922Z,10.30
2023-03-20T19:02:35.523Z,11.80
2023-03-20T19:05:03.871Z,11.80
2023-03-20T19:07:32.870Z,11.60
2023-03-20T19:10:01.241Z,11.70
2023-03-20T19:12:30.984Z,11.60
2023-03-20T19:14:59.362Z,11.60
2023-03-20T19:17:30.045Z,11.50
2023-03-20T19:19:58.376Z,11.50
2023-03-20T19:22:29.670Z,11.40
2023-03-20T19:24:58.443Z,11.20
2023-03-20T19:27:26.880Z,11.40
2023-03-20T19:29:57.330Z,11.00
2023-03-20T19:32:27.004Z,11.20
2023-03-20T19:35:38.966Z,10.90
2023-03-20T19:37:43.365Z,11.20
2023-03-20T19:40:42.897Z,11.00
2023-03-20T19:43:15.495Z,11.10
2023-03-20T19:45:45.666Z,11.00
2023-03-20T19:48:22.632Z,11.00
2023-03-20T19:50:56.060Z,11.00
2023-03-20T19:53:29.947Z,10.90
2023-03-20T19:55:58.938Z,10.90
2023-03-20T19:58:32.581Z,10.80
2023-03-20T20:01:01.024Z,10.80
2023-03-20T20:03:29.541Z,10.80
2023-03-20T20:06:05.632Z,10.70
2023-03-20T20:08:46.935Z,10.80
2023-03-20T20:11:20.154Z,10.70
2023-03-20T20:14:10.021Z,10.60
2023-03-20T20:16:47.175Z,10.70
2023-03-20T20:19:15.802Z,10.50
2023-03-20T20:24:35.369Z,10.40
2023-03-20T20:27:16.194Z,10.40
2023-03-20T20:29:54.261Z,10.40
2023-03-20T20:32:26.123Z,10.30
2023-03-20T20:38:30.575Z,10.30
2023-03-20T20:40:38.286Z,10.40
2023-03-20T20:43:10.277Z,10.10
2023-03-20T20:45:39.000Z,9.90
2023-03-20T20:48:14.587Z,10.10
2023-03-20T20:50:46.759Z,10.10
2023-03-20T20:53:15.612Z,10.00
2023-03-20T20:55:43.480Z,9.90
2023-03-20T20:58:12.174Z,10.10
2023-03-20T21:00:51.737Z,9.90
2023-03-20T21:03:24.199Z,10.70
2023-03-20T21:05:52.137Z,9.80
2023-03-20T21:08:20.726Z,9.80
2023-03-20T21:10:49.032Z,9.70
2023-03-20T21:13:20.178Z,9.70
2023-03-20T21:15:49.095Z,9.80
2023-03-20T21:18:17.229Z,9.70
2023-03-20T21:20:44.823Z,9.70
2023-03-20T21:23:13.745Z,9.80
2023-03-20T21:25:44.658Z,9.60
2023-03-20T21:28:14.985Z,9.50
2023-03-20T21:31:06.057Z,9.50
2023-03-20T21:33:35.942Z,9.50
2023-03-20T21:36:04.249Z,9.50
2023-03-20T21:39:06.915Z,9.50
2023-03-20T21:41:23.573Z,9.40
2023-03-20T21:43:51.114Z,9.30
2023-03-20T21:46:52.475Z,9.20
2023-03-20T21:55:33.874Z,8.90
2023-03-20T22:03:22.371Z,9.10
2023-03-20T22:06:59.190Z,9.10
2023-03-20T22:12:52.766Z,9.00
2023-03-20T22:17:59.886Z,8.90
2023-03-20T22:23:56.353Z,8.80
2023-03-20T22:29:45.216Z,8.80
2023-03-20T22:38:41.675Z,8.90
2023-03-20T22:44:30.621Z,8.70
2023-03-20T22:46:22.516Z,8.60
2023-03-20T22:48:50.744Z,8.80
2023-03-20T22:51:18.384Z,8.40
2023-03-20T22:53:47.746Z,8.50
2023-03-20T22:56:15.045Z,8.50
2023-03-20T22:58:42.298Z,8.60
2023-03-20T23:01:11.235Z,8.30
2023-03-20T23:03:41.939Z,8.50
2023-03-20T23:06:16.408Z,8.50
2023-03-20T23:08:50.689Z,8.30
2023-03-20T23:11:23.473Z,8.40
2023-03-20T23:13:54.461Z,8.30
2023-03-20T23:16:21.892Z,8.40
2023-03-20T23:18:49.125Z,8.20
2023-03-20T23:21:19.055Z,8.30
2023-03-20T23:23:46.266Z,8.30
2023-03-20T23:26:20.731Z,8.10
2023-03-20T23:28:50.064Z,8.00
2023-03-20T23:31:25.001Z,8.20
2023-03-20T23:33:58.538Z,8.20
2023-03-20T23:36:42.451Z,8.20
2023-03-20T23:39:13.190Z,8.20
2023-03-20T23:44:31.720Z,8.10
2023-03-20T23:47:01.377Z,8.10
2023-03-20T23:49:30.784Z,8.10
2023-03-20T23:52:01.099Z,8.10
2023-03-20T23:54:28.417Z,8.00
2023-03-20T23:56:55.618Z,8.00
2023-03-20T23:59:22.984Z,7.80
